createdAt,value
2022-12-16T00:01:13.521Z,16.40
2022-12-16T00:03:42.291Z,16.30
2022-12-16T00:06:10.778Z,16.40
2022-12-16T00:08:39.899Z,16.50
2022-12-16T00:11:08.721Z,16.50
2022-12-16T00:13:38.428Z,16.40
2022-12-16T00:16:07.507Z,16.50
2022-12-16T00:18:38.428Z,16.50
2022-12-16T00:21:06.974Z,16.60
2022-12-16T00:23:35.935Z,16.50
2022-12-16T00:26:04.681Z,16.40
2022-12-16T00:28:33.011Z,16.40
2022-12-16T00:31:01.478Z,16.40
2022-12-16T00:33:30.093Z,16.30
2022-12-16T00:36:00.208Z,16.20
2022-12-16T00:38:28.752Z,16.20
2022-12-16T00:40:57.123Z,16.10
2022-12-16T00:43:25.556Z,16.10
2022-12-16T00:45:54.112Z,16.00
2022-12-16T00:48:23.485Z,15.90
2022-12-16T00:50:52.217Z,15.90
2022-12-16T00:53:22.151Z,15.80
2022-12-16T00:55:50.490Z,15.80
2022-12-16T00:58:19.106Z,15.70
2022-12-16T01:00:47.654Z,15.60
2022-12-16T01:03:21.338Z,15.60
2022-12-16T01:05:50.602Z,15.60
2022-12-16T01:08:22.672Z,15.60
2022-12-16T01:10:52.211Z,15.60
2022-12-16T01:13:21.007Z,15.60
2022-12-16T01:15:49.574Z,15.70
2022-12-16T01:18:19.040Z,15.60
2022-12-16T01:20:47.468Z,15.70
2022-12-16T01:23:15.893Z,15.50
2022-12-16T01:25:45.709Z,15.60
2022-12-16T01:28:14.091Z,15.60
2022-12-16T01:30:42.460Z,15.60
2022-12-16T01:33:10.955Z,15.60
2022-12-16T01:35:55.068Z,15.70
2022-12-16T01:38:24.524Z,15.60
2022-12-16T01:40:55.162Z,15.50
2022-12-16T01:43:25.600Z,15.50
2022-12-16T01:45:54.358Z,15.50
2022-12-16T01:48:27.461Z,15.50
2022-12-16T01:51:00.077Z,15.40
2022-12-16T01:53:29.009Z,15.30
2022-12-16T01:55:59.183Z,15.10
2022-12-16T01:58:29.016Z,15.10
2022-12-16T02:00:57.456Z,15.10
2022-12-16T02:03:26.182Z,15.10
2022-12-16T02:05:54.661Z,15.10
2022-12-16T02:08:24.266Z,15.20
2022-12-16T02:10:59.526Z,15.20
2022-12-16T02:13:33.846Z,15.10
2022-12-16T02:16:09.902Z,15.20
2022-12-16T02:18:44.467Z,15.20
2022-12-16T02:21:22.432Z,15.20
2022-12-16T02:24:01.859Z,15.10
2022-12-16T02:26:41.692Z,15.10
2022-12-16T02:29:22.247Z,15.10
2022-12-16T02:31:55.864Z,15.00
2022-12-16T02:34:29.683Z,15.10
2022-12-16T02:37:02.961Z,15.10
2022-12-16T02:39:35.233Z,15.00
2022-12-16T02:42:08.470Z,15.10
2022-12-16T02:44:41.308Z,15.20
2022-12-16T02:47:11.192Z,15.20
2022-12-16T02:49:50.053Z,15.20
2022-12-16T02:52:20.380Z,15.20
2022-12-16T02:54:49.620Z,15.20
2022-12-16T02:57:24.133Z,15.20
2022-12-16T02:59:55.287Z,15.20
2022-12-16T03:02:27.073Z,15.20
2022-12-16T03:04:57.691Z,15.30
2022-12-16T03:07:27.735Z,15.30
2022-12-16T03:09:57.472Z,15.20
2022-12-16T03:12:25.893Z,15.20
2022-12-16T03:14:54.845Z,15.30
2022-12-16T03:17:24.730Z,15.30
2022-12-16T03:19:58.495Z,15.40
2022-12-16T03:22:29.026Z,15.40
2022-12-16T03:24:57.761Z,15.30
2022-12-16T03:27:28.393Z,15.30
2022-12-16T03:30:02.807Z,15.30
2022-12-16T03:32:34.257Z,15.20
2022-12-16T03:35:10.620Z,15.20
2022-12-16T03:37:39.722Z,15.20
2022-12-16T03:40:09.251Z,15.20
2022-12-16T03:42:38.654Z,15.10
2022-12-16T03:45:09.429Z,15.10
2022-12-16T03:47:38.959Z,15.10
2022-12-16T03:50:09.244Z,15.00
2022-12-16T03:52:37.645Z,15.00
2022-12-16T03:55:06.198Z,14.90
2022-12-16T03:57:34.824Z,14.90
2022-12-16T04:00:03.286Z,14.80
2022-12-16T04:02:31.852Z,14.80
2022-12-16T04:05:00.415Z,14.90
2022-12-16T04:07:30.260Z,15.00
2022-12-16T04:09:58.623Z,15.00
2022-12-16T04:12:44.081Z,15.00
2022-12-16T04:15:35.377Z,15.10
2022-12-16T04:18:21.621Z,15.00
2022-12-16T04:21:09.698Z,14.90
2022-12-16T04:24:00.512Z,14.90
2022-12-16T04:26:28.882Z,14.80
2022-12-16T04:28:57.320Z,14.80
2022-12-16T04:31:25.829Z,14.80
2022-12-16T04:34:11.367Z,14.80
2022-12-16T04:37:08.402Z,14.80
2022-12-16T04:39:55.701Z,14.80
2022-12-16T04:42:41.108Z,14.80
2022-12-16T04:45:27.434Z,14.80
2022-12-16T04:48:13.547Z,14.80
2022-12-16T04:50:59.515Z,14.90
2022-12-16T04:53:47.809Z,14.90
2022-12-16T04:56:34.989Z,15.00
2022-12-16T04:59:21.049Z,15.00
2022-12-16T05:02:08.989Z,14.90
2022-12-16T05:04:59.931Z,14.90
2022-12-16T05:07:45.996Z,14.90
2022-12-16T05:10:31.450Z,14.90
2022-12-16T05:13:18.514Z,14.80
2022-12-16T05:16:07.096Z,14.80
2022-12-16T05:19:04.171Z,14.70
2022-12-16T05:21:49.869Z,14.70
2022-12-16T05:24:35.422Z,14.80
2022-12-16T05:27:26.288Z,14.60
2022-12-16T05:30:13.492Z,14.60
2022-12-16T05:32:59.092Z,14.50
2022-12-16T05:35:45.030Z,14.40
2022-12-16T05:38:30.541Z,14.30
2022-12-16T05:41:16.220Z,14.30
2022-12-16T05:44:01.584Z,14.20
2022-12-16T05:46:48.713Z,14.30
2022-12-16T05:49:34.775Z,14.30
2022-12-16T05:52:21.098Z,14.30
2022-12-16T05:55:06.704Z,14.20
2022-12-16T05:57:52.220Z,14.30
2022-12-16T06:00:38.291Z,14.30
2022-12-16T06:03:25.559Z,14.20
2022-12-16T06:06:11.184Z,14.20
2022-12-16T06:08:56.832Z,14.20
2022-12-16T06:11:42.328Z,14.20
2022-12-16T06:14:28.015Z,14.20
2022-12-16T06:17:14.046Z,14.40
2022-12-16T06:20:01.073Z,14.40
2022-12-16T06:22:46.672Z,14.50
2022-12-16T06:25:32.558Z,14.60
2022-12-16T06:28:18.683Z,14.60
2022-12-16T06:31:04.312Z,14.60
2022-12-16T06:33:54.709Z,14.70
2022-12-16T06:36:41.937Z,14.60
2022-12-16T06:39:24.157Z,14.50
2022-12-16T06:42:10.105Z,14.50
2022-12-16T06:44:55.728Z,14.60
2022-12-16T06:47:41.335Z,14.60
2022-12-16T06:50:27.475Z,14.70
2022-12-16T06:53:14.643Z,14.80
2022-12-16T06:56:00.636Z,14.90
2022-12-16T06:58:46.536Z,14.90
2022-12-16T07:01:32.196Z,14.90
2022-12-16T07:04:17.731Z,15.00
2022-12-16T07:07:03.322Z,15.00
2022-12-16T07:09:50.593Z,15.20
2022-12-16T07:12:36.064Z,15.20
2022-12-16T07:15:22.447Z,15.20
2022-12-16T07:18:08.016Z,15.30
2022-12-16T07:20:53.650Z,15.30
2022-12-16T07:23:41.177Z,15.30
2022-12-16T07:26:28.130Z,15.30
2022-12-16T07:29:13.775Z,15.30
2022-12-16T07:31:59.469Z,15.40
2022-12-16T07:34:49.977Z,15.30
2022-12-16T07:37:36.680Z,15.30
2022-12-16T07:40:22.652Z,15.30
2022-12-16T07:43:09.868Z,15.40
2022-12-16T07:45:55.852Z,15.40
2022-12-16T07:48:41.415Z,15.50
2022-12-16T07:51:26.856Z,15.60
2022-12-16T07:54:12.896Z,15.70
2022-12-16T07:56:58.423Z,15.90
2022-12-16T07:59:45.518Z,15.90
2022-12-16T08:02:31.355Z,16.00
2022-12-16T08:05:17.067Z,15.90
2022-12-16T08:08:03.003Z,16.00
2022-12-16T08:10:48.715Z,16.00
2022-12-16T08:13:35.233Z,16.00
2022-12-16T08:16:28.117Z,16.00
2022-12-16T08:19:14.190Z,16.00
2022-12-16T08:22:00.347Z,16.10
2022-12-16T08:24:51.579Z,16.20
2022-12-16T08:27:39.687Z,16.30
2022-12-16T08:30:26.328Z,16.40
2022-12-16T08:33:30.751Z,16.50
2022-12-16T08:36:16.908Z,16.70
2022-12-16T08:39:02.911Z,16.80
2022-12-16T08:41:49.042Z,16.90
2022-12-16T08:44:35.244Z,17.10
2022-12-16T08:47:21.342Z,17.20
2022-12-16T08:50:08.594Z,17.40
2022-12-16T08:52:50.967Z,17.50
2022-12-16T08:55:37.142Z,17.50
2022-12-16T08:58:23.358Z,17.70
2022-12-16T09:01:09.472Z,17.80
2022-12-16T09:03:55.763Z,17.90
2022-12-16T09:06:43.015Z,18.00
2022-12-16T09:09:29.309Z,18.10
2022-12-16T09:12:15.822Z,18.10
2022-12-16T09:15:01.858Z,18.20
2022-12-16T09:17:48.001Z,18.30
2022-12-16T09:20:34.112Z,18.30
2022-12-16T09:23:21.891Z,18.30
2022-12-16T09:26:08.092Z,18.50
2022-12-16T09:28:54.200Z,18.60
2022-12-16T09:31:40.822Z,18.70
2022-12-16T09:34:27.108Z,18.70
2022-12-16T09:37:13.125Z,18.60
2022-12-16T09:40:00.317Z,18.60
2022-12-16T09:42:48.919Z,18.60
2022-12-16T09:45:39.202Z,18.70
2022-12-16T09:48:29.752Z,18.60
2022-12-16T09:51:17.399Z,18.70
2022-12-16T09:54:03.676Z,18.70
2022-12-16T09:56:55.481Z,18.80
2022-12-16T09:59:43.761Z,18.90
2022-12-16T10:02:30.770Z,18.90
2022-12-16T10:05:16.950Z,18.90
2022-12-16T10:08:06.507Z,18.90
2022-12-16T10:10:57.232Z,19.10
2022-12-16T10:13:48.091Z,19.30
2022-12-16T10:16:37.823Z,19.40
2022-12-16T10:19:26.466Z,19.40
2022-12-16T10:22:16.540Z,19.50
2022-12-16T10:25:06.659Z,19.70
2022-12-16T10:27:55.706Z,19.80
2022-12-16T10:30:42.880Z,19.80
2022-12-16T10:33:30.363Z,19.90
2022-12-16T10:36:16.523Z,20.00
2022-12-16T10:39:03.537Z,20.10
2022-12-16T10:41:51.330Z,20.10
2022-12-16T10:44:40.970Z,20.20
2022-12-16T10:47:28.872Z,20.30
2022-12-16T10:50:11.335Z,20.20
2022-12-16T10:53:02.577Z,20.30
2022-12-16T10:55:53.218Z,20.30
2022-12-16T10:58:43.885Z,20.30
2022-12-16T11:01:39.093Z,20.30
2022-12-16T11:04:44.359Z,20.30
2022-12-16T11:07:51.055Z,20.30
2022-12-16T11:10:43.803Z,20.30
2022-12-16T11:13:31.255Z,20.30
2022-12-16T11:16:25.194Z,20.40
2022-12-16T11:19:11.299Z,20.40
2022-12-16T11:21:57.462Z,20.50
2022-12-16T11:24:44.574Z,20.50
2022-12-16T11:27:34.647Z,20.50
2022-12-16T11:30:21.324Z,20.50
2022-12-16T11:33:09.139Z,20.50
2022-12-16T11:35:58.374Z,20.60
2022-12-16T11:38:45.881Z,20.50
2022-12-16T11:41:38.696Z,20.50
2022-12-16T11:44:26.714Z,20.40
2022-12-16T11:47:13.084Z,20.40
2022-12-16T11:49:59.104Z,20.50
2022-12-16T11:52:45.424Z,20.50
2022-12-16T11:56:04.448Z,20.50
2022-12-16T11:58:46.659Z,20.60
2022-12-16T12:01:43.191Z,20.60
2022-12-16T12:04:31.675Z,20.50
2022-12-16T12:07:22.278Z,20.50
2022-12-16T12:10:10.420Z,20.50
2022-12-16T12:13:01.671Z,20.50
2022-12-16T12:15:52.173Z,20.50
2022-12-16T12:18:43.406Z,20.50
2022-12-16T12:21:33.653Z,20.50
2022-12-16T12:24:24.822Z,20.50
2022-12-16T12:27:16.604Z,20.40
2022-12-16T12:30:16.068Z,20.40
2022-12-16T12:33:11.143Z,20.40
2022-12-16T12:36:12.699Z,20.40
2022-12-16T12:39:02.056Z,20.50
2022-12-16T12:42:04.212Z,20.50
2022-12-16T12:44:55.229Z,20.50
2022-12-16T12:47:42.033Z,20.60
2022-12-16T12:50:32.891Z,20.70
2022-12-16T12:53:33.928Z,20.70
2022-12-16T12:56:23.737Z,20.90
2022-12-16T12:59:11.677Z,20.90
2022-12-16T13:02:00.069Z,20.90
2022-12-16T13:04:47.989Z,20.90
2022-12-16T13:07:35.596Z,20.90
2022-12-16T13:10:31.769Z,20.80
2022-12-16T13:13:36.872Z,20.80
2022-12-16T13:16:23.887Z,20.80
2022-12-16T13:19:32.877Z,20.70
2022-12-16T13:22:19.050Z,20.70
2022-12-16T13:25:08.196Z,20.60
2022-12-16T13:28:09.603Z,20.60
2022-12-16T13:30:55.701Z,20.60
2022-12-16T13:33:45.920Z,20.70
2022-12-16T13:36:33.075Z,20.70
2022-12-16T13:39:25.774Z,20.70
2022-12-16T13:42:19.003Z,20.70
2022-12-16T13:45:14.727Z,20.70
2022-12-16T13:48:19.639Z,20.70
2022-12-16T13:51:06.276Z,20.70
2022-12-16T13:53:57.149Z,20.70
2022-12-16T13:56:44.309Z,20.70
2022-12-16T13:59:34.042Z,20.80
2022-12-16T14:02:33.402Z,20.80
2022-12-16T14:05:19.635Z,20.90
2022-12-16T14:08:06.124Z,20.90
2022-12-16T14:10:55.692Z,20.80
2022-12-16T14:13:46.434Z,20.60
2022-12-16T14:16:40.289Z,20.40
2022-12-16T14:19:39.914Z,20.40
2022-12-16T14:22:43.102Z,20.40
2022-12-16T14:25:34.196Z,20.50
2022-12-16T14:28:25.890Z,20.50
2022-12-16T14:31:22.537Z,20.40
2022-12-16T14:34:13.358Z,20.30
2022-12-16T14:36:59.925Z,20.20
2022-12-16T14:39:49.498Z,20.20
2022-12-16T14:42:41.025Z,20.00
2022-12-16T14:45:38.898Z,20.00
2022-12-16T14:48:32.120Z,19.90
2022-12-16T14:51:32.067Z,19.90
2022-12-16T14:54:33.038Z,19.90
2022-12-16T14:57:19.020Z,19.80
2022-12-16T15:00:04.358Z,19.70
2022-12-16T15:02:53.106Z,19.70
2022-12-16T15:05:41.122Z,19.60
2022-12-16T15:08:34.031Z,19.60
2022-12-16T15:11:22.627Z,19.60
2022-12-16T15:14:11.263Z,19.50
2022-12-16T15:16:57.394Z,19.40
2022-12-16T15:19:43.537Z,19.30
2022-12-16T15:22:32.670Z,19.10
2022-12-16T15:25:18.665Z,19.00
2022-12-16T15:28:13.547Z,18.90
2022-12-16T15:31:00.259Z,18.80
2022-12-16T15:33:47.353Z,18.70
2022-12-16T15:36:40.218Z,18.60
2022-12-16T15:39:36.938Z,18.60
2022-12-16T15:42:23.055Z,18.50
2022-12-16T15:45:25.491Z,18.40
2022-12-16T15:48:11.311Z,18.30
2022-12-16T15:50:57.003Z,18.20
2022-12-16T15:53:47.800Z,18.30
2022-12-16T15:56:37.761Z,18.20
2022-12-16T15:59:34.147Z,18.10
2022-12-16T16:02:25.264Z,18.10
2022-12-16T16:05:12.513Z,18.10
2022-12-16T16:08:03.485Z,18.00
2022-12-16T16:10:50.722Z,18.00
2022-12-16T16:13:37.178Z,18.10
2022-12-16T16:16:23.499Z,18.00
2022-12-16T16:19:10.651Z,17.90
2022-12-16T16:21:56.385Z,17.70
2022-12-16T16:24:42.413Z,17.70
2022-12-16T16:27:29.602Z,17.60
2022-12-16T16:30:15.779Z,17.50
2022-12-16T16:33:01.776Z,17.50
2022-12-16T16:35:49.771Z,17.60
2022-12-16T16:38:35.902Z,17.70
2022-12-16T16:41:21.963Z,17.60
2022-12-16T16:44:07.485Z,17.60
2022-12-16T16:46:55.108Z,17.50
2022-12-16T16:49:42.343Z,17.40
2022-12-16T16:52:33.515Z,17.40
2022-12-16T16:55:19.739Z,17.40
2022-12-16T16:58:05.879Z,17.40
2022-12-16T17:00:51.894Z,17.30
2022-12-16T17:03:38.934Z,17.20
2022-12-16T17:06:25.616Z,17.20
2022-12-16T17:09:12.739Z,17.10
2022-12-16T17:11:58.813Z,17.00
2022-12-16T17:14:44.960Z,17.00
2022-12-16T17:17:30.989Z,16.90
2022-12-16T17:20:16.640Z,16.70
2022-12-16T17:23:02.607Z,16.60
2022-12-16T17:25:49.604Z,16.60
2022-12-16T17:28:35.232Z,16.50
2022-12-16T17:31:21.318Z,16.50
2022-12-16T17:34:07.558Z,16.60
2022-12-16T17:36:53.179Z,16.60
2022-12-16T17:39:38.637Z,16.60
2022-12-16T17:42:28.120Z,16.70
2022-12-16T17:45:13.694Z,16.70
2022-12-16T17:47:59.172Z,16.60
2022-12-16T17:50:44.815Z,16.50
2022-12-16T17:53:30.964Z,16.40
2022-12-16T17:56:21.395Z,16.40
2022-12-16T17:59:11.043Z,16.40
2022-12-16T18:01:56.928Z,16.40
2022-12-16T18:04:42.567Z,16.40
2022-12-16T18:07:36.482Z,16.40
2022-12-16T18:10:22.434Z,16.40
2022-12-16T18:13:08.507Z,16.40
2022-12-16T18:15:55.635Z,16.50
2022-12-16T18:18:46.066Z,16.50
2022-12-16T18:21:28.940Z,16.50
2022-12-16T18:24:14.949Z,16.50
2022-12-16T18:27:09.321Z,16.50
2022-12-16T18:29:54.744Z,16.60
2022-12-16T18:32:41.955Z,16.60
2022-12-16T18:35:27.520Z,16.60
2022-12-16T18:38:16.453Z,16.60
2022-12-16T18:41:02.381Z,16.70
2022-12-16T18:43:47.858Z,16.70
2022-12-16T18:46:33.353Z,16.60
2022-12-16T18:49:20.491Z,16.70
2022-12-16T18:52:06.445Z,16.70
2022-12-16T18:54:52.164Z,16.70
2022-12-16T18:57:39.840Z,16.70
2022-12-16T19:00:26.786Z,16.70
2022-12-16T19:03:12.425Z,16.60
2022-12-16T19:05:59.571Z,16.60
2022-12-16T19:08:47.588Z,16.50
2022-12-16T19:11:33.109Z,16.50
2022-12-16T19:14:19.119Z,16.60
2022-12-16T19:17:04.627Z,16.60
2022-12-16T19:19:50.923Z,16.70
2022-12-16T19:22:53.443Z,16.80
2022-12-16T19:25:40.649Z,16.80
2022-12-16T19:28:30.853Z,16.90
2022-12-16T19:31:16.526Z,16.90
2022-12-16T19:34:02.976Z,17.00
2022-12-16T19:36:49.022Z,16.90
2022-12-16T19:39:36.163Z,17.00
2022-12-16T19:42:21.584Z,17.10
2022-12-16T19:45:07.198Z,17.00
2022-12-16T19:48:01.147Z,17.10
2022-12-16T19:50:46.879Z,17.00
2022-12-16T19:53:32.463Z,17.00
2022-12-16T19:56:19.695Z,17.00
2022-12-16T19:59:05.269Z,17.00
2022-12-16T20:01:50.840Z,17.00
2022-12-16T20:04:37.429Z,16.90
2022-12-16T20:07:34.921Z,16.80
2022-12-16T20:10:17.083Z,16.90
2022-12-16T20:13:04.124Z,16.80
2022-12-16T20:15:50.141Z,16.70
2022-12-16T20:18:35.628Z,16.70
2022-12-16T20:21:21.627Z,16.60
2022-12-16T20:24:07.267Z,16.50
2022-12-16T20:26:52.853Z,16.40
2022-12-16T20:29:42.282Z,16.40
2022-12-16T20:32:27.887Z,16.40
2022-12-16T20:35:13.293Z,16.30
2022-12-16T20:38:07.249Z,16.20
2022-12-16T20:40:52.766Z,16.30
2022-12-16T20:43:42.628Z,16.20
2022-12-16T20:46:29.963Z,16.20
2022-12-16T20:49:15.386Z,16.20
2022-12-16T20:52:03.239Z,16.20
2022-12-16T20:54:48.912Z,16.20
2022-12-16T20:57:34.975Z,16.30
2022-12-16T21:00:21.064Z,16.30
2022-12-16T21:03:08.346Z,16.30
2022-12-16T21:05:56.166Z,16.30
2022-12-16T21:08:41.617Z,16.20
2022-12-16T21:11:27.304Z,16.20
2022-12-16T21:14:12.870Z,16.20
2022-12-16T21:16:58.515Z,16.10
2022-12-16T21:19:45.617Z,16.10
2022-12-16T21:22:31.148Z,16.10
2022-12-16T21:25:22.809Z,16.10
2022-12-16T21:28:14.419Z,16.10
2022-12-16T21:30:59.971Z,16.20
2022-12-16T21:33:46.426Z,16.10
2022-12-16T21:36:33.861Z,16.10
2022-12-16T21:39:19.948Z,16.10
2022-12-16T21:42:20.111Z,16.10
2022-12-16T21:45:05.895Z,16.10
2022-12-16T21:47:51.763Z,16.10
2022-12-16T21:50:37.239Z,16.10
2022-12-16T21:53:24.319Z,16.10
2022-12-16T21:56:10.882Z,16.10
2022-12-16T21:58:56.994Z,16.10
2022-12-16T22:01:43.017Z,16.20
2022-12-16T22:04:29.080Z,16.10
2022-12-16T22:07:15.324Z,16.10
2022-12-16T22:10:02.404Z,16.10
2022-12-16T22:12:48.418Z,16.00
2022-12-16T22:15:34.544Z,16.10
2022-12-16T22:18:31.599Z,16.10
2022-12-16T22:21:18.401Z,16.10
2022-12-16T22:24:04.296Z,16.10
2022-12-16T22:26:53.348Z,16.10
2022-12-16T22:29:39.505Z,16.10
2022-12-16T22:32:25.489Z,16.00
2022-12-16T22:35:11.052Z,15.90
2022-12-16T22:37:57.227Z,15.90
2022-12-16T22:40:42.684Z,15.90
2022-12-16T22:43:29.853Z,15.90
2022-12-16T22:46:18.630Z,15.90
2022-12-16T22:49:04.690Z,15.90
2022-12-16T22:51:50.322Z,15.80
2022-12-16T22:54:44.367Z,15.80
2022-12-16T22:57:30.544Z,15.80
2022-12-16T23:00:23.064Z,15.70
2022-12-16T23:03:08.557Z,15.70
2022-12-16T23:05:56.326Z,15.70
2022-12-16T23:08:42.037Z,15.70
2022-12-16T23:11:35.774Z,15.70
2022-12-16T23:14:21.357Z,15.60
2022-12-16T23:17:09.717Z,15.60
2022-12-16T23:19:56.354Z,15.70
2022-12-16T23:22:42.699Z,15.60
2022-12-16T23:25:28.720Z,15.50
2022-12-16T23:28:14.829Z,15.50
2022-12-16T23:31:00.397Z,15.40
2022-12-16T23:33:47.573Z,15.40
2022-12-16T23:36:33.123Z,15.40
2022-12-16T23:39:19.133Z,15.40
2022-12-16T23:42:04.771Z,15.30
2022-12-16T23:45:02.241Z,15.20
2022-12-16T23:47:44.469Z,15.20
2022-12-16T23:50:31.564Z,15.10
2022-12-16T23:53:20.628Z,15.10
2022-12-16T23:56:06.655Z,15.10
2022-12-16T23:58:52.679Z,15.10
